Aegean Orion — SVA2487 — position and weather

sailwx.info

Track history (hours):
 
Tides and Currents Weather Stations Pressure Air Temp Water Temp Dewpoint Dewpoint Depression Visibility Wind Speed Wind Dir Waves Ship Positions

Aegean Orion

Last reported at 2014-Nov-27 16:34 UTC. Time now 2014-Nov-28 21:41 UTC.
Position N 38°00' E 023°33'.

; draft 2.4 m.

Type: Ship. MMSI: 239550200.

Date/timePositionNaut miles runAvg speedWind from/ knotsBaromVisibWave heightAir tempDewpointWater temp
2014-Nov-27 16:34N 38°00' E 023°33'6 5.7
2014-Nov-27 15:34N 37°57' E 023°38'0 0.0
2014-Nov-27 14:34N 37°57' E 023°38'1 1.4
2014-Nov-27 13:34N 37°56' E 023°37'0 0.1
2014-Nov-27 12:34N 37°56' E 023°37'1 0.5
2014-Nov-27 11:34N 37°56' E 023°37'0 0.0
2014-Nov-27 10:34N 37°56' E 023°37'0 0.0
2014-Nov-27 09:34N 37°56' E 023°37'0 0.3
2014-Nov-27 08:34N 37°56' E 023°37'5 4.7
2014-Nov-27 07:33N 37°60' E 023°33'2 2.3
2014-Nov-27 06:34N 38°01' E 023°35'0 0.0
2014-Nov-27 05:34N 38°01' E 023°35'0 0.0
2014-Nov-27 04:34N 38°01' E 023°35'0 0.0
2014-Nov-27 03:34N 38°01' E 023°35'0 0.0
2014-Nov-27 02:34N 38°01' E 023°35'1 0.8
2014-Nov-27 01:33N 38°02' E 023°36'0 0.0
2014-Nov-27 00:33N 38°02' E 023°36'0 0.0
2014-Nov-26 23:34N 38°02' E 023°36'0 0.0
2014-Nov-26 22:33N 38°02' E 023°36'0 0.0
2014-Nov-26 21:33N 38°02' E 023°36'1 0.9
2014-Nov-26 20:34N 38°01' E 023°35'0 0.0
2014-Nov-26 19:07N 38°01' E 023°35'0 0.0
2014-Nov-26 18:34N 38°01' E 023°35'0 0.0
2014-Nov-26 17:33N 38°01' E 023°35'0 0.0
2014-Nov-26 16:34N 38°01' E 023°35'0 0.0
2014-Nov-26 15:34N 38°01' E 023°35'0 0.0
2014-Nov-26 14:34N 38°01' E 023°35'0 0.0
2014-Nov-26 13:33N 38°01' E 023°35'0 0.0
2014-Nov-26 12:34N 38°01' E 023°35'4 4.5
2014-Nov-26 11:34N 37°57' E 023°35'2 2.3
2014-Nov-26 10:34N 37°56' E 023°38'0 0.0
2014-Nov-26 09:34N 37°56' E 023°38'0 0.0
2014-Nov-26 08:34N 37°56' E 023°38'0 0.0
2014-Nov-26 07:34N 37°56' E 023°38'2 2.0
2014-Nov-26 06:34N 37°57' E 023°35'6 5.9
2014-Nov-26 05:33N 38°02' E 023°32'0 0.0
2014-Nov-25 09:14N 38°02' E 023°32'0 0.7
2014-Nov-25 08:33N 38°02' E 023°32'3 2.6
2014-Nov-25 07:34N 38°02' E 023°36'0 0.0
2014-Nov-25 06:34N 38°02' E 023°36'0 0.0
2014-Nov-25 05:33N 38°02' E 023°36'3 2.9
2014-Nov-25 04:34N 38°02' E 023°32'0 0.0
2014-Nov-24 16:22N 38°02' E 023°32'3 4.1
2014-Nov-24 15:33N 37°59' E 023°33'5 5.0
2014-Nov-24 14:33N 37°57' E 023°38'0 0.0
2014-Nov-24 13:33N 37°57' E 023°38'3 2.9
2014-Nov-24 12:33N 37°57' E 023°35'0 0.3
2014-Nov-24 11:33N 37°57' E 023°35'0 0.0
2014-Nov-24 10:33N 37°57' E 023°35'0 0.0
2014-Nov-24 09:33N 37°57' E 023°35'0 0.0
2014-Nov-24 08:33N 37°57' E 023°35'0 0.0
2014-Nov-24 07:33N 37°57' E 023°35'0 0.0
2014-Nov-24 06:34N 37°57' E 023°35'0 0.0
2014-Nov-24 05:33N 37°57' E 023°35'0 0.0
2014-Nov-24 04:33N 37°57' E 023°35'0 0.0
2014-Nov-24 03:33N 37°57' E 023°35'0 0.0
2014-Nov-24 02:33N 37°57' E 023°35'0 0.0
2014-Nov-24 01:33N 37°57' E 023°35'3 3.2
2014-Nov-24 00:33N 37°57' E 023°38'0 0.0
2014-Nov-23 23:33N 37°57' E 023°38'0 0.0
2014-Nov-23 22:33N 37°57' E 023°38'0 0.3
2014-Nov-23 21:33N 37°57' E 023°38'3 3.0
2014-Nov-23 20:33N 37°57' E 023°35'0 0.0
2014-Nov-23 19:33N 37°57' E 023°35'0 0.0
2014-Nov-23 18:33N 37°57' E 023°35'0 0.0
2014-Nov-23 17:33N 37°57' E 023°35'0 0.0
2014-Nov-23 16:33N 37°57' E 023°35'0 0.0
2014-Nov-23 15:33N 37°57' E 023°35'1 0.8
2014-Nov-23 14:33N 37°57' E 023°33'5 4.6
2014-Nov-23 13:33N 38°02' E 023°36'0 0.0
2014-Nov-23 12:33N 38°02' E 023°36'0 0.0
2014-Nov-23 11:33N 38°02' E 023°36'0 0.0
2014-Nov-23 10:33N 38°02' E 023°36'0 0.0
2014-Nov-23 09:33N 38°02' E 023°36'0 0.0
2014-Nov-23 08:33N 38°02' E 023°36'1 0.7
2014-Nov-23 07:33N 38°02' E 023°35'0 0.0
2014-Nov-23 06:33N 38°02' E 023°35'2 0.1
2014-Nov-21 14:29N 38°02' E 023°32'0 0.0
2014-Nov-21 13:33N 38°02' E 023°32'0 0.0
2014-Nov-21 12:33N 38°02' E 023°32'0 0.0
2014-Nov-21 11:33N 38°02' E 023°32'0 0.0
2014-Nov-21 10:34N 38°02' E 023°32'6 6.0
2014-Nov-21 09:33N 37°57' E 023°35'2 1.8
2014-Nov-21 08:33N 37°56' E 023°38'0 0.0
2014-Nov-21 07:34N 37°56' E 023°38'0 0.0
2014-Nov-21 06:33N 37°56' E 023°38'5 4.9
2014-Nov-21 05:33N 37°60' E 023°33'3 0.2
2014-Nov-20 16:22N 38°02' E 023°32'4 5.4
2014-Nov-20 15:33N 37°58' E 023°33'5 4.5
2014-Nov-20 14:33N 37°57' E 023°38'0 0.0
2014-Nov-20 13:33N 37°57' E 023°38'2 2.3
2014-Nov-20 12:33N 37°57' E 023°36'6 6.1
2014-Nov-20 11:33N 38°02' E 023°32'0 0.1
2014-Nov-20 10:33N 38°02' E 023°32'0 0.0
2014-Nov-20 09:33N 38°02' E 023°32'0 0.0
2014-Nov-20 08:33N 38°02' E 023°32'0 0.0
2014-Nov-20 07:33N 38°02' E 023°32'0 0.0
2014-Nov-19 14:34N 38°02' E 023°32'0 0.0
2014-Nov-19 13:34N 38°02' E 023°32'0 0.0
2014-Nov-19 12:34N 38°02' E 023°32'0 0.0
2014-Nov-19 11:33N 38°02' E 023°32'1 1.0
2014-Nov-19 10:34N 38°02' E 023°31'0 0.1
2014-Nov-19 09:34N 38°02' E 023°31'0 0.0
2014-Nov-19 08:33N 38°02' E 023°31'0 0.0
2014-Nov-19 07:27N 38°02' E 023°31'0 0.0
2014-Nov-19 06:33N 38°02' E 023°31'0 0.5
2014-Nov-19 05:33N 38°02' E 023°31'1 0.5
2014-Nov-19 04:31N 38°02' E 023°32'  
Track history (hours):
 
Tides and Currents Weather Stations Pressure Air Temp Water Temp Dewpoint Dewpoint Depression Visibility Wind Speed Wind Dir Waves Ship Positions

Aegean Orion

Last reported at 2014-Nov-27 16:34 UTC. Time now 2014-Nov-28 21:41 UTC.
Position N 38°00' E 023°33'.

; draft 2.4 m.

Type: Ship. MMSI: 239550200.

Date/timePositionNaut miles runAvg speedWind from/ knotsBaromVisibWave heightAir tempDewpointWater temp
2014-Nov-27 16:34N 38°00' E 023°33'6 5.7
2014-Nov-27 15:34N 37°57' E 023°38'0 0.0
2014-Nov-27 14:34N 37°57' E 023°38'1 1.4
2014-Nov-27 13:34N 37°56' E 023°37'0 0.1
2014-Nov-27 12:34N 37°56' E 023°37'1 0.5
2014-Nov-27 11:34N 37°56' E 023°37'0 0.0
2014-Nov-27 10:34N 37°56' E 023°37'0 0.0
2014-Nov-27 09:34N 37°56' E 023°37'0 0.3
2014-Nov-27 08:34N 37°56' E 023°37'5 4.7
2014-Nov-27 07:33N 37°60' E 023°33'2 2.3
2014-Nov-27 06:34N 38°01' E 023°35'0 0.0
2014-Nov-27 05:34N 38°01' E 023°35'0 0.0
2014-Nov-27 04:34N 38°01' E 023°35'0 0.0
2014-Nov-27 03:34N 38°01' E 023°35'0 0.0
2014-Nov-27 02:34N 38°01' E 023°35'1 0.8
2014-Nov-27 01:33N 38°02' E 023°36'0 0.0
2014-Nov-27 00:33N 38°02' E 023°36'0 0.0
2014-Nov-26 23:34N 38°02' E 023°36'0 0.0
2014-Nov-26 22:33N 38°02' E 023°36'0 0.0
2014-Nov-26 21:33N 38°02' E 023°36'1 0.9
2014-Nov-26 20:34N 38°01' E 023°35'0 0.0
2014-Nov-26 19:07N 38°01' E 023°35'0 0.0
2014-Nov-26 18:34N 38°01' E 023°35'0 0.0
2014-Nov-26 17:33N 38°01' E 023°35'0 0.0
2014-Nov-26 16:34N 38°01' E 023°35'0 0.0
2014-Nov-26 15:34N 38°01' E 023°35'0 0.0
2014-Nov-26 14:34N 38°01' E 023°35'0 0.0
2014-Nov-26 13:33N 38°01' E 023°35'0 0.0
2014-Nov-26 12:34N 38°01' E 023°35'4 4.5
2014-Nov-26 11:34N 37°57' E 023°35'2 2.3
2014-Nov-26 10:34N 37°56' E 023°38'0 0.0
2014-Nov-26 09:34N 37°56' E 023°38'0 0.0
2014-Nov-26 08:34N 37°56' E 023°38'0 0.0
2014-Nov-26 07:34N 37°56' E 023°38'2 2.0
2014-Nov-26 06:34N 37°57' E 023°35'6 5.9
2014-Nov-26 05:33N 38°02' E 023°32'0 0.0
2014-Nov-25 09:14N 38°02' E 023°32'0 0.7
2014-Nov-25 08:33N 38°02' E 023°32'3 2.6
2014-Nov-25 07:34N 38°02' E 023°36'0 0.0
2014-Nov-25 06:34N 38°02' E 023°36'0 0.0
2014-Nov-25 05:33N 38°02' E 023°36'3 2.9
2014-Nov-25 04:34N 38°02' E 023°32'0 0.0
2014-Nov-24 16:22N 38°02' E 023°32'3 4.1
2014-Nov-24 15:33N 37°59' E 023°33'5 5.0
2014-Nov-24 14:33N 37°57' E 023°38'0 0.0
2014-Nov-24 13:33N 37°57' E 023°38'3 2.9
2014-Nov-24 12:33N 37°57' E 023°35'0 0.3
2014-Nov-24 11:33N 37°57' E 023°35'0 0.0
2014-Nov-24 10:33N 37°57' E 023°35'0 0.0
2014-Nov-24 09:33N 37°57' E 023°35'0 0.0
2014-Nov-24 08:33N 37°57' E 023°35'0 0.0
2014-Nov-24 07:33N 37°57' E 023°35'0 0.0
2014-Nov-24 06:34N 37°57' E 023°35'0 0.0
2014-Nov-24 05:33N 37°57' E 023°35'0 0.0
2014-Nov-24 04:33N 37°57' E 023°35'0 0.0
2014-Nov-24 03:33N 37°57' E 023°35'0 0.0
2014-Nov-24 02:33N 37°57' E 023°35'0 0.0
2014-Nov-24 01:33N 37°57' E 023°35'3 3.2
2014-Nov-24 00:33N 37°57' E 023°38'0 0.0
2014-Nov-23 23:33N 37°57' E 023°38'0 0.0
2014-Nov-23 22:33N 37°57' E 023°38'0 0.3
2014-Nov-23 21:33N 37°57' E 023°38'3 3.0
2014-Nov-23 20:33N 37°57' E 023°35'0 0.0
2014-Nov-23 19:33N 37°57' E 023°35'0 0.0
2014-Nov-23 18:33N 37°57' E 023°35'0 0.0
2014-Nov-23 17:33N 37°57' E 023°35'0 0.0
2014-Nov-23 16:33N 37°57' E 023°35'0 0.0
2014-Nov-23 15:33N 37°57' E 023°35'1 0.8
2014-Nov-23 14:33N 37°57' E 023°33'5 4.6
2014-Nov-23 13:33N 38°02' E 023°36'0 0.0
2014-Nov-23 12:33N 38°02' E 023°36'0 0.0
2014-Nov-23 11:33N 38°02' E 023°36'0 0.0
2014-Nov-23 10:33N 38°02' E 023°36'0 0.0
2014-Nov-23 09:33N 38°02' E 023°36'0 0.0
2014-Nov-23 08:33N 38°02' E 023°36'1 0.7
2014-Nov-23 07:33N 38°02' E 023°35'0 0.0
2014-Nov-23 06:33N 38°02' E 023°35'2 0.1
2014-Nov-21 14:29N 38°02' E 023°32'0 0.0
2014-Nov-21 13:33N 38°02' E 023°32'0 0.0
2014-Nov-21 12:33N 38°02' E 023°32'0 0.0
2014-Nov-21 11:33N 38°02' E 023°32'0 0.0
2014-Nov-21 10:34N 38°02' E 023°32'6 6.0
2014-Nov-21 09:33N 37°57' E 023°35'2 1.8
2014-Nov-21 08:33N 37°56' E 023°38'0 0.0
2014-Nov-21 07:34N 37°56' E 023°38'0 0.0
2014-Nov-21 06:33N 37°56' E 023°38'5 4.9
2014-Nov-21 05:33N 37°60' E 023°33'3 0.2
2014-Nov-20 16:22N 38°02' E 023°32'4 5.4
2014-Nov-20 15:33N 37°58' E 023°33'5 4.5
2014-Nov-20 14:33N 37°57' E 023°38'0 0.0
2014-Nov-20 13:33N 37°57' E 023°38'2 2.3
2014-Nov-20 12:33N 37°57' E 023°36'6 6.1
2014-Nov-20 11:33N 38°02' E 023°32'0 0.1
2014-Nov-20 10:33N 38°02' E 023°32'0 0.0
2014-Nov-20 09:33N 38°02' E 023°32'0 0.0
2014-Nov-20 08:33N 38°02' E 023°32'0 0.0
2014-Nov-20 07:33N 38°02' E 023°32'0 0.0
2014-Nov-19 14:34N 38°02' E 023°32'0 0.0
2014-Nov-19 13:34N 38°02' E 023°32'0 0.0
2014-Nov-19 12:34N 38°02' E 023°32'0 0.0
2014-Nov-19 11:33N 38°02' E 023°32'1 1.0
2014-Nov-19 10:34N 38°02' E 023°31'0 0.1
2014-Nov-19 09:34N 38°02' E 023°31'0 0.0
2014-Nov-19 08:33N 38°02' E 023°31'0 0.0
2014-Nov-19 07:27N 38°02' E 023°31'0 0.0
2014-Nov-19 06:33N 38°02' E 023°31'0 0.5
2014-Nov-19 05:33N 38°02' E 023°31'1 0.5
2014-Nov-19 04:31N 38°02' E 023°32'  

Dump ship's entire track history